Time;durP1;ratioP1;P1;durP2;ratioP2;P2;SDS_P1;SDS_P2;PMS_P1;PMS_P2;Temp;Humidity;BMP_temperature;BMP_pressure;BME280_temperature;BME280_humidity;BME280_pressure;Samples;Min_cycle;Max_cycle;Signal;HPM_P1;HPM_P2
2022/01/14 00:00:58;;;;;;;77.13;17.52;;;2.50;99.90;;;;;;5133360;27;20160;-45
2022/01/14 00:03:24;;;;;;;65.47;16.48;;;2.40;99.90;;;;;;5133414;27;20251;-47
2022/01/14 00:05:50;;;;;;;74.35;17.10;;;2.40;99.90;;;;;;5133070;27;20168;-47
2022/01/14 00:08:15;;;;;;;73.60;17.98;;;2.30;99.90;;;;;;5133069;27;20257;-46
2022/01/14 00:10:47;;;;;;;72.63;16.25;;;2.30;99.90;;;;;;5133041;27;20260;-46
2022/01/14 00:13:37;;;;;;;87.82;18.98;;;2.30;99.90;;;;;;5133298;27;20600;-47
2022/01/14 00:15:58;;;;;;;63.88;15.55;;;2.30;99.90;;;;;;5133131;27;20175;-46
2022/01/14 00:18:24;;;;;;;32.30;13.07;;;2.20;99.90;;;;;;5132957;27;20247;-45
2022/01/14 00:20:49;;;;;;;32.67;14.45;;;2.10;99.90;;;;;;5132967;27;20160;-45
2022/01/14 00:23:17;;;;;;;31.35;14.05;;;2.10;99.90;;;;;;5132582;27;20198;-45
2022/01/14 00:33:54;;;;;;;36.33;18.92;;;1.90;99.90;;;;;;5132919;27;20167;-47
2022/01/14 00:36:20;;;;;;;55.33;26.50;;;2.00;99.90;;;;;;5132973;27;20167;-47
2022/01/14 00:38:45;;;;;;;40.38;16.05;;;2.00;99.90;;;;;;5132974;27;20168;-46
2022/01/14 00:41:11;;;;;;;41.67;15.55;;;2.10;99.90;;;;;;5132822;27;20198;-47
2022/01/14 00:43:39;;;;;;;42.25;15.82;;;2.00;99.90;;;;;;5132766;27;20594;-46
2022/01/14 00:46:04;;;;;;;36.47;16.45;;;3.80;99.90;;;;;;5133001;27;20176;-48
2022/01/14 00:48:31;;;;;;;30.58;14.48;;;2.10;99.90;;;;;;5133017;27;20167;-47
2022/01/14 00:50:56;;;;;;;41.17;14.18;;;2.20;99.90;;;;;;5132899;28;20235;-48
2022/01/14 00:53:22;;;;;;;35.33;14.27;;;2.00;99.90;;;;;;5133549;27;20176;-46
2022/01/14 00:55:58;;;;;;;41.70;14.85;;;2.00;99.90;;;;;;5136567;27;20160;-47
2022/01/14 01:01:08;;;;;;;30.17;12.80;;;2.00;99.90;;;;;;5136901;27;20177;-48
2022/01/14 01:03:35;;;;;;;34.33;13.77;;;2.10;99.90;;;;;;5136597;27;20175;-47
2022/01/14 01:06:01;;;;;;;35.47;14.65;;;2.10;99.90;;;;;;5117997;27;20168;-48
2022/01/14 01:08:28;;;;;;;36.75;14.70;;;2.20;99.90;;;;;;5136656;27;20220;-48
2022/01/14 01:10:53;;;;;;;39.47;13.63;;;2.20;99.90;;;;;;5136233;27;20231;-49
2022/01/14 01:13:33;;;;;;;29.58;14.82;;;2.20;99.90;;;;;;5136270;27;20172;-48
2022/01/14 01:15:59;;;;;;;29.95;14.10;;;2.30;99.90;;;;;;5136821;27;20198;-48
2022/01/14 01:18:25;;;;;;;28.42;12.30;;;2.20;99.90;;;;;;5136178;27;20514;-46
2022/01/14 01:20:51;;;;;;;23.90;13.25;;;2.20;99.90;;;;;;5136190;27;20167;-48
2022/01/14 01:23:17;;;;;;;26.45;12.48;;;2.20;99.90;;;;;;5136081;27;20160;-48
2022/01/14 01:25:51;;;;;;;25.45;11.63;;;2.00;99.90;;;;;;5136157;27;20523;-47
2022/01/14 01:28:17;;;;;;;24.70;12.07;;;2.10;99.90;;;;;;5136233;27;20175;-48
2022/01/14 01:33:20;;;;;;;32.80;14.50;;;2.00;99.90;;;;;;5136174;27;20678;-48
2022/01/14 01:35:47;;;;;;;28.50;14.38;;;2.10;99.90;;;;;;5136092;27;20199;-48
2022/01/14 01:38:16;;;;;;;22.80;12.65;;;2.10;99.90;;;;;;5135822;27;20191;-47
2022/01/14 01:40:47;;;;;;;31.38;12.63;;;2.10;99.90;;;;;;5136078;27;20251;-47
2022/01/14 01:43:13;;;;;;;24.30;13.52;;;2.10;99.90;;;;;;5135774;27;20595;-48
2022/01/14 01:45:39;;;;;;;23.33;12.50;;;2.10;99.90;;;;;;5135862;27;20191;-47
2022/01/14 01:48:05;;;;;;;32.58;15.48;;;2.10;99.90;;;;;;5135901;27;20187;-47
2022/01/14 01:50:32;;;;;;;26.10;13.43;;;2.10;99.90;;;;;;5135848;27;20160;-47
2022/01/14 01:52:58;;;;;;;28.50;13.07;;;2.10;99.90;;;;;;5135990;27;20207;-48
2022/01/14 01:55:24;;;;;;;24.88;12.35;;;2.10;99.90;;;;;;5135502;27;20246;-47
2022/01/14 01:57:51;;;;;;;30.08;12.50;;;2.10;99.90;;;;;;5135454;27;20255;-48
2022/01/14 02:00:21;;;;;;;26.00;12.10;;;2.10;99.90;;;;;;5135697;27;20215;-48
2022/01/14 02:02:48;;;;;;;30.33;14.10;;;2.10;99.90;;;;;;5135257;27;20627;-47
2022/01/14 02:05:14;;;;;;;27.05;13.30;;;2.10;99.90;;;;;;5135015;27;20164;-48
2022/01/14 02:07:40;;;;;;;33.03;13.20;;;2.10;99.90;;;;;;5135572;27;20304;-47
2022/01/14 02:10:07;;;;;;;25.63;13.05;;;2.10;99.90;;;;;;5134981;27;20250;-46
2022/01/14 02:12:47;;;;;;;26.70;11.57;;;1.90;99.90;;;;;;5116652;27;20207;-45
2022/01/14 02:15:26;;;;;;;24.70;12.57;;;1.90;99.90;;;;;;5135452;27;20171;-47
2022/01/14 02:18:24;;;;;;;22.90;11.27;;;1.90;99.90;;;;;;5135013;27;20174;-45
2022/01/14 02:23:24;;;;;;;27.13;12.57;;;1.70;99.90;;;;;;5134995;27;20183;-48
2022/01/14 02:25:49;;;;;;;27.50;12.05;;;1.80;99.90;;;;;;5135185;27;20250;-46
2022/01/14 02:28:17;;;;;;;22.98;12.80;;;1.90;99.90;;;;;;5134843;27;20300;-46
2022/01/14 02:30:45;;;;;;;30.08;14.10;;;1.90;99.90;;;;;;5134740;27;20160;-47
2022/01/14 02:33:13;;;;;;;23.45;12.65;;;1.80;99.90;;;;;;5135031;27;20570;-45
2022/01/14 02:35:40;;;;;;;23.33;12.45;;;1.70;99.90;;;;;;5134781;27;20242;-46
2022/01/14 02:38:09;;;;;;;22.63;12.48;;;1.80;99.90;;;;;;5134732;27;20175;-46
2022/01/14 02:40:34;;;;;;;24.08;12.05;;;1.80;99.90;;;;;;5134652;27;20707;-45
2022/01/14 02:43:01;;;;;;;36.83;13.15;;;1.90;99.90;;;;;;5134842;27;20239;-45
2022/01/14 02:45:32;;;;;;;24.17;12.00;;;1.80;99.90;;;;;;5134873;27;20176;-45
2022/01/14 02:47:57;;;;;;;28.02;11.73;;;1.90;99.90;;;;;;5134986;27;20168;-45
2022/01/14 02:50:24;;;;;;;23.23;13.52;;;1.90;99.90;;;;;;5134487;27;20631;-45
2022/01/14 02:55:22;;;;;;;23.70;13.50;;;1.80;99.90;;;;;;5134263;27;20156;-46
2022/01/14 02:57:51;;;;;;;23.58;13.40;;;1.80;99.90;;;;;;5134235;27;20187;-45
2022/01/14 03:00:20;;;;;;;26.42;13.07;;;1.70;99.90;;;;;;5134242;27;20156;-45
2022/01/14 03:02:48;;;;;;;21.63;12.45;;;1.80;99.90;;;;;;5134444;27;20267;-45
2022/01/14 03:05:15;;;;;;;32.90;15.57;;;1.80;99.90;;;;;;5134168;27;20164;-47
2022/01/14 03:07:41;;;;;;;31.35;15.35;;;1.80;99.90;;;;;;5134387;27;20246;-47
2022/01/14 03:10:09;;;;;;;26.98;14.30;;;1.80;99.90;;;;;;5134106;27;20169;-47
2022/01/14 03:12:35;;;;;;;32.63;14.98;;;1.80;99.90;;;;;;5134006;27;20290;-47
2022/01/14 03:15:01;;;;;;;24.13;12.55;;;1.70;99.90;;;;;;5115791;27;20222;-48
2022/01/14 03:17:28;;;;;;;25.13;14.23;;;1.70;99.90;;;;;;5133513;27;20285;-46
2022/01/14 03:19:54;;;;;;;26.70;12.98;;;1.60;99.90;;;;;;5134066;27;20172;-46
2022/01/14 03:22:25;;;;;;;24.00;12.38;;;1.70;99.90;;;;;;5133891;27;20160;-47
2022/01/14 03:27:17;;;;;;;25.30;12.13;;;1.60;99.90;;;;;;5134000;27;20203;-46
2022/01/14 03:29:42;;;;;;;23.95;11.88;;;1.60;99.90;;;;;;5133670;27;20175;-46
2022/01/14 03:32:08;;;;;;;23.23;12.27;;;1.60;99.90;;;;;;5133540;27;20200;-46
2022/01/14 03:34:34;;;;;;;27.88;12.43;;;1.60;99.90;;;;;;5133613;27;20160;-47
2022/01/14 03:37:00;;;;;;;21.50;11.95;;;1.60;99.90;;;;;;5133958;27;20246;-47
2022/01/14 03:39:25;;;;;;;23.80;12.48;;;1.60;99.90;;;;;;5133480;27;20183;-46
2022/01/14 03:41:51;;;;;;;18.35;11.75;;;1.60;99.90;;;;;;5133452;27;20164;-45
2022/01/14 03:44:17;;;;;;;21.10;12.55;;;1.70;99.90;;;;;;5133469;27;20529;-46
2022/01/14 03:46:43;;;;;;;26.02;13.18;;;1.60;99.90;;;;;;5133620;27;20167;-47
2022/01/14 03:49:09;;;;;;;32.53;14.18;;;1.60;99.90;;;;;;5133375;27;20243;-46
2022/01/14 03:51:34;;;;;;;21.83;12.32;;;1.70;99.90;;;;;;5133299;27;20299;-45
2022/01/14 03:54:00;;;;;;;22.00;12.68;;;1.70;99.90;;;;;;5133666;27;20218;-45
2022/01/14 03:56:26;;;;;;;25.40;13.45;;;1.70;99.90;;;;;;5133249;27;20213;-45
2022/01/14 03:58:52;;;;;;;23.45;12.55;;;1.70;99.90;;;;;;5133487;27;20217;-44
2022/01/14 04:01:19;;;;;;;26.92;12.32;;;1.80;99.90;;;;;;5133417;27;20554;-45
2022/01/14 04:03:46;;;;;;;20.05;11.13;;;1.70;99.90;;;;;;5133470;27;20251;-45
2022/01/14 04:06:13;;;;;;;20.67;11.95;;;1.60;99.90;;;;;;5133378;27;20179;-46
2022/01/14 04:08:39;;;;;;;24.88;13.38;;;1.70;99.90;;;;;;5132941;27;20545;-50
2022/01/14 04:11:06;;;;;;;23.08;12.73;;;1.60;99.90;;;;;;5132853;27;20220;-48
2022/01/14 04:13:48;;;;;;;27.30;13.13;;;1.60;99.90;;;;;;5133272;27;20179;-45
2022/01/14 04:16:15;;;;;;;24.77;13.05;;;1.50;99.90;;;;;;5133262;28;20320;-48
2022/01/14 04:18:40;;;;;;;21.88;10.95;;;1.50;99.90;;;;;;5133023;28;20243;-48
2022/01/14 04:21:06;;;;;;;21.45;13.02;;;1.60;99.90;;;;;;5132951;27;20195;-46
2022/01/14 04:23:32;;;;;;;24.63;12.95;;;1.60;99.90;;;;;;5133086;27;20168;-45
2022/01/14 04:25:57;;;;;;;21.08;11.38;;;1.50;99.90;;;;;;5133202;27;20172;-46
2022/01/14 04:28:25;;;;;;;23.00;11.85;;;1.60;99.90;;;;;;5135560;27;20164;-46
2022/01/14 04:30:54;;;;;;;26.60;11.43;;;1.60;99.90;;;;;;5137313;27;20206;-46
2022/01/14 04:33:21;;;;;;;26.73;12.27;;;1.60;99.90;;;;;;5137130;27;20243;-46
2022/01/14 04:35:48;;;;;;;24.77;12.68;;;1.50;99.90;;;;;;5136886;27;20630;-47
2022/01/14 04:38:13;;;;;;;26.05;12.38;;;1.50;99.90;;;;;;5136956;27;20190;-46
2022/01/14 04:40:39;;;;;;;19.92;11.52;;;1.50;99.90;;;;;;5136970;27;20168;-46
2022/01/14 04:43:06;;;;;;;25.33;11.68;;;1.50;99.90;;;;;;5136790;27;20718;-47
2022/01/14 04:48:02;;;;;;;21.35;11.15;;;1.50;99.90;;;;;;5137049;27;20160;-45
2022/01/14 04:50:27;;;;;;;20.38;11.65;;;1.50;99.90;;;;;;5137110;27;20164;-47
2022/01/14 04:52:53;;;;;;;21.30;11.85;;;1.50;99.90;;;;;;5136631;27;20686;-46
2022/01/14 04:55:22;;;;;;;19.70;10.70;;;1.40;99.90;;;;;;5136692;27;20532;-46
2022/01/14 04:57:48;;;;;;;27.33;11.55;;;1.50;99.90;;;;;;5136619;27;20172;-47
2022/01/14 05:00:17;;;;;;;24.77;11.52;;;1.40;99.90;;;;;;5136641;27;20639;-46
2022/01/14 05:02:42;;;;;;;25.00;11.48;;;1.50;99.90;;;;;;5136485;27;20178;-46
2022/01/14 05:05:09;;;;;;;20.20;11.43;;;1.40;99.90;;;;;;5136699;27;20172;-46
2022/01/14 05:07:36;;;;;;;22.30;11.05;;;1.50;99.90;;;;;;5136364;27;20632;-46
2022/01/14 05:12:38;;;;;;;23.23;11.82;;;1.50;99.90;;;;;;5136790;27;20203;-48
2022/01/14 05:15:05;;;;;;;24.95;11.27;;;1.50;99.90;;;;;;5136295;27;20162;-47
2022/01/14 05:17:31;;;;;;;21.95;11.40;;;1.50;99.90;;;;;;5136829;27;20218;-47
2022/01/14 05:19:58;;;;;;;20.83;10.90;;;1.50;99.90;;;;;;5136511;27;20631;-47
2022/01/14 05:22:24;;;;;;;19.85;12.02;;;1.40;99.90;;;;;;5136478;27;20191;-47
2022/01/14 05:24:50;;;;;;;22.23;11.88;;;1.40;99.90;;;;;;5136027;27;20164;-48
2022/01/14 05:27:15;;;;;;;26.83;13.10;;;1.40;99.90;;;;;;5136132;27;20213;-46
2022/01/14 05:29:41;;;;;;;22.20;11.50;;;1.40;99.90;;;;;;5136112;27;20221;-46
2022/01/14 05:32:12;;;;;;;22.25;10.93;;;1.40;99.90;;;;;;5135913;27;20291;-47
2022/01/14 05:34:41;;;;;;;20.30;11.52;;;1.40;99.90;;;;;;5136280;27;20217;-47
2022/01/14 05:37:07;;;;;;;24.50;13.20;;;1.40;99.90;;;;;;5135880;27;20182;-46
2022/01/14 05:39:32;;;;;;;17.80;11.10;;;1.30;99.90;;;;;;5116727;27;20160;-45
2022/01/14 05:42:00;;;;;;;20.77;10.95;;;1.30;99.90;;;;;;5136040;27;20232;-48
2022/01/14 05:44:27;;;;;;;25.27;12.93;;;1.30;99.90;;;;;;5135717;27;20268;-46
2022/01/14 05:46:54;;;;;;;28.30;14.32;;;1.30;99.90;;;;;;5135631;27;20172;-47
2022/01/14 05:49:21;;;;;;;24.25;13.18;;;1.30;99.90;;;;;;5117145;27;20521;-49
2022/01/14 05:51:47;;;;;;;25.45;12.90;;;1.20;99.90;;;;;;5135527;27;20677;-47
2022/01/14 05:54:13;;;;;;;25.67;13.48;;;1.30;99.90;;;;;;5135560;27;20174;-47
2022/01/14 05:56:39;;;;;;;20.45;11.63;;;1.30;99.90;;;;;;5135740;27;20172;-47
2022/01/14 05:59:05;;;;;;;27.45;13.50;;;1.30;99.90;;;;;;5135081;27;20166;-47
2022/01/14 06:01:30;;;;;;;25.80;14.65;;;1.30;99.90;;;;;;5135526;27;20182;-48
2022/01/14 06:04:00;;;;;;;26.08;13.45;;;1.30;99.90;;;;;;5135324;27;20164;-48
2022/01/14 06:06:26;;;;;;;30.25;14.48;;;1.20;99.90;;;;;;5135494;27;20167;-49
2022/01/14 06:08:52;;;;;;;26.38;14.80;;;1.30;99.90;;;;;;5135107;27;20235;-47
2022/01/14 06:11:18;;;;;;;29.33;14.57;;;1.30;99.90;;;;;;5134720;27;20260;-46
2022/01/14 06:13:45;;;;;;;24.23;13.23;;;1.30;99.90;;;;;;5135463;27;20186;-46
2022/01/14 06:16:10;;;;;;;25.08;14.50;;;1.30;99.90;;;;;;5135131;27;20168;-47
2022/01/14 06:18:36;;;;;;;24.25;14.32;;;1.20;99.90;;;;;;5135100;27;20228;-46
2022/01/14 06:21:02;;;;;;;28.10;13.90;;;1.20;99.90;;;;;;5135371;27;20216;-47
2022/01/14 06:23:28;;;;;;;30.73;15.73;;;1.30;99.90;;;;;;5135245;27;20164;-47
2022/01/14 06:25:53;;;;;;;30.10;14.20;;;1.20;99.90;;;;;;5134584;27;20156;-46
2022/01/14 06:28:19;;;;;;;27.58;14.00;;;1.20;99.90;;;;;;5134882;27;20174;-48
2022/01/14 06:30:44;;;;;;;24.75;14.45;;;1.10;99.90;;;;;;5134905;27;20213;-46
2022/01/14 06:33:10;;;;;;;23.17;14.50;;;1.20;99.90;;;;;;5134644;27;20195;-46
2022/01/14 06:35:36;;;;;;;23.42;13.68;;;1.20;99.90;;;;;;5134641;27;20586;-46
2022/01/14 06:38:02;;;;;;;23.23;12.07;;;1.20;99.90;;;;;;5134515;27;20186;-45
2022/01/14 06:40:28;;;;;;;22.25;10.55;;;1.10;99.90;;;;;;5116410;27;20176;-46
2022/01/14 06:42:54;;;;;;;21.45;11.77;;;1.10;99.90;;;;;;5134611;27;20511;-47
2022/01/14 06:45:20;;;;;;;20.65;12.10;;;1.10;99.90;;;;;;5134389;27;20182;-48
2022/01/14 06:47:45;;;;;;;20.17;11.45;;;1.10;99.90;;;;;;5134611;27;20657;-46
2022/01/14 06:50:11;;;;;;;23.55;12.45;;;1.10;99.90;;;;;;5134147;27;20631;-46
2022/01/14 06:52:37;;;;;;;25.98;12.82;;;1.20;99.90;;;;;;5133385;27;20215;-47
2022/01/14 06:55:03;;;;;;;23.20;12.40;;;1.20;99.90;;;;;;5134193;27;20160;-46
2022/01/14 06:57:29;;;;;;;16.67;10.40;;;1.20;99.90;;;;;;5134574;27;20175;-47
2022/01/14 06:59:54;;;;;;;20.88;10.82;;;1.20;99.90;;;;;;5134311;27;20164;-47
2022/01/14 07:02:20;;;;;;;22.65;12.27;;;1.10;99.90;;;;;;5134105;27;20164;-46
2022/01/14 07:04:46;;;;;;;18.60;10.52;;;1.10;99.90;;;;;;5134133;27;20207;-45
2022/01/14 07:07:11;;;;;;;23.65;11.10;;;1.10;99.90;;;;;;5134108;27;20168;-45
2022/01/14 07:09:38;;;;;;;21.42;10.52;;;1.10;99.90;;;;;;5133933;27;20168;-47
2022/01/14 07:12:04;;;;;;;21.13;11.52;;;1.10;99.90;;;;;;5133803;27;20247;-46
2022/01/14 07:14:30;;;;;;;23.58;11.63;;;1.20;99.90;;;;;;5134277;27;20167;-46
2022/01/14 07:16:57;;;;;;;29.70;12.63;;;1.10;99.90;;;;;;5134004;27;20176;-47
2022/01/14 07:19:23;;;;;;;19.23;10.35;;;1.10;99.90;;;;;;5133909;27;20164;-45
2022/01/14 07:21:49;;;;;;;24.80;11.43;;;1.10;99.90;;;;;;5134034;27;20164;-47
2022/01/14 07:24:15;;;;;;;26.42;11.18;;;1.10;99.90;;;;;;5134072;27;20167;-45
2022/01/14 07:26:41;;;;;;;22.67;11.40;;;1.10;99.90;;;;;;5133794;27;20159;-46
2022/01/14 07:29:07;;;;;;;18.25;10.15;;;1.10;99.90;;;;;;5133692;27;20633;-46
2022/01/14 07:31:33;;;;;;;20.95;11.52;;;1.20;99.90;;;;;;5133867;27;20290;-46
2022/01/14 07:33:59;;;;;;;18.63;11.65;;;1.30;99.90;;;;;;5133881;27;20168;-46
2022/01/14 07:36:25;;;;;;;20.58;11.07;;;1.30;99.90;;;;;;5133562;27;20288;-47
2022/01/14 07:38:50;;;;;;;21.15;11.32;;;1.20;99.90;;;;;;5115187;27;20167;-46
2022/01/14 07:41:16;;;;;;;23.55;10.43;;;1.20;99.90;;;;;;5133495;27;20171;-46
2022/01/14 07:43:48;;;;;;;19.67;11.07;;;1.30;99.90;;;;;;5133460;27;20186;-46
2022/01/14 07:46:14;;;;;;;19.50;10.48;;;1.30;99.90;;;;;;5133684;27;20163;-45
2022/01/14 07:48:40;;;;;;;19.05;10.13;;;1.20;99.90;;;;;;5133492;27;20240;-47
2022/01/14 07:51:06;;;;;;;20.98;11.10;;;1.20;99.90;;;;;;5133353;27;20570;-47
2022/01/14 07:53:31;;;;;;;20.88;9.60;;;1.30;99.90;;;;;;5133556;27;20220;-47
2022/01/14 07:55:57;;;;;;;19.50;10.52;;;1.20;99.90;;;;;;5133592;27;20202;-46
2022/01/14 07:58:23;;;;;;;21.02;10.63;;;1.30;99.90;;;;;;5133241;27;20172;-47
2022/01/14 08:00:49;;;;;;;20.30;10.27;;;1.30;99.90;;;;;;5133195;27;20635;-45
2022/01/14 08:03:14;;;;;;;24.55;11.60;;;1.30;99.90;;;;;;5132825;27;20200;-45
2022/01/14 08:05:40;;;;;;;23.13;11.93;;;1.30;99.90;;;;;;5133186;27;20580;-46
2022/01/14 08:08:07;;;;;;;20.33;10.77;;;1.40;99.90;;;;;;5133096;27;20172;-46
2022/01/14 08:10:34;;;;;;;23.35;11.55;;;1.40;99.90;;;;;;5133110;27;20272;-46
2022/01/14 08:13:01;;;;;;;23.27;11.48;;;1.50;99.90;;;;;;5133482;27;20226;-45
2022/01/14 08:15:27;;;;;;;22.75;11.32;;;1.50;99.90;;;;;;5133389;27;20172;-45
2022/01/14 08:17:54;;;;;;;23.95;10.85;;;1.40;99.90;;;;;;5133040;27;20164;-45
2022/01/14 08:20:19;;;;;;;24.20;11.68;;;1.40;99.90;;;;;;5133204;27;20194;-45
2022/01/14 08:22:45;;;;;;;20.75;11.02;;;1.50;99.90;;;;;;5133001;28;20615;-46
2022/01/14 08:25:11;;;;;;;21.05;12.30;;;1.60;99.90;;;;;;5114855;28;20172;-45
2022/01/14 08:27:37;;;;;;;19.85;11.85;;;1.60;99.90;;;;;;5132902;28;20586;-45
2022/01/14 08:30:06;;;;;;;18.70;11.40;;;1.70;99.90;;;;;;5132854;27;20248;-48
2022/01/14 08:32:32;;;;;;;22.42;11.95;;;1.70;99.90;;;;;;5132739;27;20199;-46
2022/01/14 08:34:57;;;;;;;20.95;11.93;;;1.80;99.90;;;;;;5133131;28;20196;-45
2022/01/14 08:37:23;;;;;;;25.98;12.68;;;1.90;99.90;;;;;;5132767;27;20534;-46
2022/01/14 08:39:49;;;;;;;17.05;10.85;;;1.90;99.90;;;;;;5132807;27;20252;-45
2022/01/14 08:42:14;;;;;;;21.05;11.52;;;2.00;99.90;;;;;;5132826;28;20698;-48
2022/01/14 08:44:41;;;;;;;22.92;11.60;;;2.10;99.90;;;;;;5132667;27;20171;-45
2022/01/14 08:47:09;;;;;;;22.63;11.85;;;2.20;99.90;;;;;;5132732;27;20259;-45
2022/01/14 08:49:38;;;;;;;26.10;12.52;;;2.30;99.90;;;;;;5132597;27;20692;-46
2022/01/14 08:52:04;;;;;;;23.77;11.85;;;2.40;99.90;;;;;;5132810;27;20213;-47
2022/01/14 08:54:30;;;;;;;24.25;13.32;;;2.60;99.90;;;;;;5133221;27;20246;-48
2022/01/14 08:56:56;;;;;;;26.90;14.15;;;2.60;99.90;;;;;;5132604;28;20645;-46
2022/01/14 08:59:22;;;;;;;29.98;14.40;;;2.70;99.90;;;;;;5132752;27;20215;-47
2022/01/14 09:01:48;;;;;;;27.30;13.95;;;2.60;99.90;;;;;;5132540;27;20164;-48
2022/01/14 09:04:13;;;;;;;23.63;13.55;;;2.60;99.90;;;;;;5132531;27;20180;-47
2022/01/14 09:06:39;;;;;;;26.83;14.45;;;2.60;99.90;;;;;;5132492;27;20216;-47
2022/01/14 09:09:06;;;;;;;27.20;15.45;;;2.70;99.90;;;;;;5132458;28;20160;-48
2022/01/14 09:11:32;;;;;;;21.30;14.02;;;2.70;99.90;;;;;;5113862;28;20249;-47
2022/01/14 09:13:58;;;;;;;26.50;15.30;;;2.80;99.90;;;;;;5131342;27;20274;-50
2022/01/14 09:16:23;;;;;;;27.13;16.15;;;2.90;99.90;;;;;;5152232;27;21014;-47
2022/01/14 09:18:49;;;;;;;32.28;17.30;;;2.80;99.90;;;;;;5155762;27;20217;-50
2022/01/14 09:21:16;;;;;;;30.23;17.77;;;2.90;99.90;;;;;;5155825;27;20528;-49
2022/01/14 09:23:44;;;;;;;31.73;18.38;;;3.00;99.90;;;;;;5155507;27;20194;-49
2022/01/14 09:26:09;;;;;;;31.13;17.42;;;3.00;99.90;;;;;;5155156;27;20528;-49
2022/01/14 09:28:35;;;;;;;27.17;17.90;;;3.20;99.90;;;;;;5155531;27;20171;-48
2022/01/14 09:31:00;;;;;;;32.63;19.17;;;3.30;99.90;;;;;;5155263;27;20207;-48
2022/01/14 09:33:26;;;;;;;45.65;24.40;;;3.40;99.90;;;;;;5155493;27;20228;-48
2022/01/14 09:35:52;;;;;;;64.75;32.78;;;3.50;99.90;;;;;;5155195;27;20177;-49
2022/01/14 09:38:18;;;;;;;54.97;29.50;;;3.60;99.90;;;;;;5155425;27;20171;-48
2022/01/14 09:40:48;;;;;;;31.58;18.05;;;3.60;99.90;;;;;;5154997;27;20185;-49
2022/01/14 09:43:14;;;;;;;29.23;19.50;;;3.60;99.90;;;;;;5155414;27;20531;-48
2022/01/14 09:45:41;;;;;;;48.03;27.33;;;3.80;99.90;;;;;;5136332;27;20175;-49
2022/01/14 09:48:07;;;;;;;45.47;25.23;;;3.90;99.90;;;;;;5155149;27;20170;-50
2022/01/14 09:50:32;;;;;;;50.90;28.15;;;4.00;99.90;;;;;;5155389;27;20167;-48
2022/01/14 09:52:58;;;;;;;38.97;20.50;;;4.10;99.90;;;;;;5155527;27;20213;-49
2022/01/14 09:55:24;;;;;;;30.95;18.85;;;4.20;99.90;;;;;;5155049;27;20627;-49
2022/01/14 09:57:54;;;;;;;35.78;21.38;;;4.20;99.90;;;;;;5154979;27;20175;-49
2022/01/14 10:00:20;;;;;;;32.50;19.10;;;4.30;99.90;;;;;;5136946;27;20531;-48
2022/01/14 10:02:46;;;;;;;31.63;19.05;;;4.30;99.90;;;;;;5154966;27;20159;-49
2022/01/14 10:05:33;;;;;;;41.00;22.70;;;4.40;99.90;;;;;;5154899;27;20178;-50
2022/01/14 10:08:22;;;;;;;34.70;20.13;;;4.50;99.90;;;;;;5155010;27;20513;-49
2022/01/14 10:10:55;;;;;;;47.67;24.20;;;4.50;99.90;;;;;;5154288;27;20227;-49
2022/01/14 10:13:23;;;;;;;33.72;18.65;;;4.50;99.90;;;;;;5154636;27;20240;-50
2022/01/14 10:15:59;;;;;;;28.38;16.10;;;4.50;99.90;;;;;;5154692;27;20231;-49
2022/01/14 10:18:25;;;;;;;24.85;14.57;;;4.40;99.90;;;;;;5154508;27;20173;-48
2022/01/14 10:20:51;;;;;;;26.48;14.75;;;4.30;99.90;;;;;;5154479;27;20167;-49
2022/01/14 10:23:37;;;;;;;19.52;12.95;;;4.20;99.90;;;;;;5154481;27;20160;-47
2022/01/14 10:26:04;;;;;;;26.83;14.25;;;4.20;99.90;;;;;;5154202;27;20501;-47
2022/01/14 10:28:29;;;;;;;31.85;15.32;;;4.20;99.90;;;;;;5155099;27;20194;-47
2022/01/14 10:30:55;;;;;;;28.98;13.93;;;4.30;99.90;;;;;;5154049;27;20663;-48
2022/01/14 10:33:26;;;;;;;33.20;15.90;;;4.50;99.90;;;;;;5154236;27;20575;-48
2022/01/14 10:35:51;;;;;;;25.10;14.30;;;4.60;99.90;;;;;;5153857;27;20187;-48
2022/01/14 10:38:21;;;;;;;24.10;13.07;;;4.70;99.90;;;;;;5154034;27;20471;-47
2022/01/14 10:40:51;;;;;;;34.28;18.30;;;4.40;99.90;;;;;;5154386;27;20205;-47
2022/01/14 10:43:22;;;;;;;38.10;16.48;;;4.30;99.90;;;;;;5154257;27;20549;-49
2022/01/14 10:45:50;;;;;;;59.58;19.73;;;4.10;99.90;;;;;;5135358;27;20163;-48
2022/01/14 10:48:28;;;;;;;46.45;19.05;;;3.90;99.90;;;;;;5154104;27;20178;-48
2022/01/14 10:50:55;;;;;;;45.90;20.75;;;4.00;99.90;;;;;;5154255;27;20171;-49
2022/01/14 10:53:27;;;;;;;69.00;21.77;;;4.00;99.90;;;;;;5154055;27;20226;-48
2022/01/14 10:55:59;;;;;;;43.90;19.92;;;3.90;99.90;;;;;;5153840;27;20178;-48
2022/01/14 10:58:31;;;;;;;62.30;23.13;;;3.90;99.90;;;;;;5153491;27;20514;-47
2022/01/14 11:01:20;;;;;;;46.75;20.30;;;3.80;99.90;;;;;;5154207;27;20167;-47
2022/01/14 11:03:56;;;;;;;92.28;23.83;;;3.80;99.90;;;;;;5153892;27;20186;-48
2022/01/14 11:06:26;;;;;;;111.57;24.85;;;4.00;99.90;;;;;;5153413;27;20518;-47
2022/01/14 11:09:07;;;;;;;114.95;26.30;;;3.90;99.90;;;;;;5153512;27;20285;-48
2022/01/14 11:11:35;;;;;;;165.52;69.63;;;4.00;99.90;;;;;;5153239;27;20214;-48
2022/01/14 11:14:02;;;;;;;94.93;26.90;;;4.10;99.90;;;;;;5135652;27;20559;-47
2022/01/14 11:16:28;;;;;;;97.38;32.63;;;4.10;99.90;;;;;;5132884;27;20267;-47
2022/01/14 11:18:57;;;;;;;103.03;35.95;;;4.10;99.90;;;;;;5132493;27;20198;-48
2022/01/14 11:24:12;;;;;;;59.53;25.83;;;4.10;99.90;;;;;;5132515;27;20175;-48
2022/01/14 11:26:39;;;;;;;71.88;25.20;;;4.00;99.90;;;;;;5131447;27;20168;-48
2022/01/14 11:29:09;;;;;;;66.30;25.48;;;4.00;99.90;;;;;;5132428;27;20168;-47
2022/01/14 11:31:37;;;;;;;117.95;27.48;;;3.90;99.90;;;;;;5132304;27;20205;-49
2022/01/14 11:34:06;;;;;;;84.97;28.23;;;3.80;99.90;;;;;;5132633;27;20180;-48
2022/01/14 11:36:52;;;;;;;105.28;29.00;;;3.80;99.90;;;;;;5113829;27;20164;-47
2022/01/14 11:39:31;;;;;;;96.45;28.17;;;3.80;99.90;;;;;;5113772;27;20175;-47
2022/01/14 11:41:59;;;;;;;97.30;28.73;;;3.80;99.90;;;;;;5133178;27;20167;-47
2022/01/14 11:44:43;;;;;;;90.53;27.05;;;4.00;99.90;;;;;;5131923;27;20172;-48
2022/01/14 11:47:43;;;;;;;92.93;26.60;;;4.10;99.90;;;;;;5113604;27;20175;-48
2022/01/14 11:50:23;;;;;;;78.72;26.98;;;4.10;99.90;;;;;;5132027;27;20255;-48
2022/01/14 11:52:50;;;;;;;63.13;26.73;;;4.20;99.90;;;;;;5131829;27;20200;-49
2022/01/14 11:55:22;;;;;;;68.43;28.90;;;4.20;99.90;;;;;;5131901;27;20164;-49
2022/01/14 11:57:56;;;;;;;77.10;30.80;;;4.20;99.90;;;;;;5132199;27;20175;-49
2022/01/14 12:00:27;;;;;;;79.50;29.90;;;4.20;99.90;;;;;;5131742;27;20176;-48
2022/01/14 12:02:59;;;;;;;83.28;32.47;;;4.20;99.90;;;;;;5131840;27;20168;-49
2022/01/14 12:05:29;;;;;;;68.80;26.17;;;4.10;99.90;;;;;;5131884;27;20530;-49
2022/01/14 12:08:04;;;;;;;92.22;31.60;;;4.20;99.90;;;;;;5131857;27;20172;-48
2022/01/14 12:10:31;;;;;;;85.88;26.70;;;4.20;99.90;;;;;;5131744;27;20215;-49
2022/01/14 12:13:25;;;;;;;69.45;29.38;;;4.20;99.90;;;;;;5130666;27;20538;-49
2022/01/14 12:15:58;;;;;;;91.30;30.15;;;4.30;99.90;;;;;;5131625;27;20603;-49
2022/01/14 12:18:45;;;;;;;83.38;29.85;;;4.20;99.90;;;;;;5131864;27;20198;-49
2022/01/14 12:21:12;;;;;;;74.00;27.55;;;4.20;99.90;;;;;;5131679;27;20171;-48
2022/01/14 12:23:38;;;;;;;102.55;29.17;;;4.20;99.90;;;;;;5113261;28;20650;-50
2022/01/14 12:26:18;;;;;;;94.35;39.75;;;4.10;99.90;;;;;;5131690;27;20172;-49
2022/01/14 12:28:45;;;;;;;98.05;40.30;;;4.10;99.90;;;;;;5131866;27;20172;-48
2022/01/14 12:31:12;;;;;;;76.20;31.55;;;4.10;99.90;;;;;;5131547;27;20160;-48
2022/01/14 12:33:42;;;;;;;84.28;32.30;;;4.20;99.90;;;;;;5131523;27;20199;-48
2022/01/14 12:36:14;;;;;;;83.40;28.15;;;4.20;99.90;;;;;;5131832;28;20217;-48
2022/01/14 12:38:41;;;;;;;66.55;28.33;;;4.20;99.90;;;;;;5131521;28;20648;-48
2022/01/14 12:41:17;;;;;;;74.32;29.40;;;4.30;99.90;;;;;;5131475;27;20695;-49
2022/01/14 12:43:56;;;;;;;77.05;31.10;;;4.30;99.90;;;;;;5131297;27;20497;-48
2022/01/14 12:47:10;;;;;;;62.85;27.60;;;4.40;99.90;;;;;;5131358;27;20167;-47
2022/01/14 12:49:15;;;;;;;80.82;25.52;;;4.30;99.90;;;;;;5119230;27;20179;-48
2022/01/14 12:51:41;;;;;;;62.70;24.00;;;4.30;99.90;;;;;;5135700;27;20577;-49
2022/01/14 12:54:11;;;;;;;54.10;23.13;;;4.30;99.90;;;;;;5135504;27;20172;-49
2022/01/14 12:56:39;;;;;;;65.38;25.33;;;4.30;99.90;;;;;;5135465;27;20176;-48
2022/01/14 12:59:15;;;;;;;64.25;23.40;;;4.30;99.90;;;;;;5135654;27;20172;-47
2022/01/14 13:01:42;;;;;;;106.72;33.20;;;4.30;99.90;;;;;;5135212;27;20198;-47
2022/01/14 13:04:12;;;;;;;75.20;30.38;;;4.30;99.90;;;;;;5135333;27;20631;-49
2022/01/14 13:06:53;;;;;;;75.07;26.02;;;4.30;99.90;;;;;;5135290;27;20190;-47
2022/01/14 13:09:29;;;;;;;88.95;29.05;;;4.20;99.90;;;;;;5135048;27;20627;-48